createdAt,value
2018-08-22T00:01:41.893Z,20.80
2018-08-22T00:04:46.309Z,20.70
2018-08-22T00:07:50.755Z,20.60
2018-08-22T00:10:55.292Z,20.60
2018-08-22T00:13:59.743Z,20.50
2018-08-22T00:17:04.182Z,20.50
2018-08-22T00:20:08.626Z,20.60
2018-08-22T00:23:13.079Z,20.50
2018-08-22T00:26:17.514Z,20.50
2018-08-22T00:29:21.988Z,20.50
2018-08-22T00:32:26.437Z,20.40
2018-08-22T00:35:30.879Z,20.40
2018-08-22T00:38:35.303Z,20.40
2018-08-22T00:41:39.712Z,20.40
2018-08-22T00:44:44.235Z,20.40
2018-08-22T00:47:48.666Z,20.40
2018-08-22T00:50:53.070Z,20.40
2018-08-22T00:53:57.513Z,20.30
2018-08-22T00:57:01.967Z,20.20
2018-08-22T01:00:06.417Z,20.20
2018-08-22T01:03:10.838Z,20.20
2018-08-22T01:06:15.253Z,20.20
2018-08-22T01:09:19.686Z,20.10
2018-08-22T01:12:24.111Z,20.10
2018-08-22T01:15:28.534Z,20.00
2018-08-22T01:18:32.990Z,20.00
2018-08-22T01:21:37.405Z,20.00
2018-08-22T01:24:41.857Z,20.00
2018-08-22T01:27:46.786Z,20.00
2018-08-22T01:30:51.234Z,19.90
2018-08-22T01:33:55.713Z,19.80
2018-08-22T01:37:00.161Z,19.70
2018-08-22T01:40:04.977Z,19.70
2018-08-22T01:43:09.423Z,19.70
2018-08-22T01:46:13.903Z,19.60
2018-08-22T01:49:18.354Z,19.70
2018-08-22T01:52:22.829Z,19.60
2018-08-22T01:55:27.359Z,19.60
2018-08-22T01:58:31.813Z,19.50
2018-08-22T02:01:36.284Z,19.50
2018-08-22T02:04:40.749Z,19.40
2018-08-22T02:07:45.186Z,19.40
2018-08-22T02:10:49.681Z,19.40
2018-08-22T02:13:54.149Z,19.40
2018-08-22T02:16:58.601Z,19.40
2018-08-22T02:20:03.153Z,19.40
2018-08-22T02:23:07.705Z,19.30
2018-08-22T02:26:12.169Z,19.30
2018-08-22T02:29:16.641Z,19.30
2018-08-22T02:32:21.087Z,19.30
2018-08-22T02:35:25.550Z,19.30
2018-08-22T02:38:29.994Z,19.20
2018-08-22T02:41:34.484Z,19.20
2018-08-22T02:44:38.985Z,19.10
2018-08-22T02:47:43.446Z,19.10
2018-08-22T02:50:48.387Z,19.10
2018-08-22T02:53:52.959Z,19.10
2018-08-22T02:56:57.497Z,19.10
2018-08-22T03:00:01.986Z,19.00
2018-08-22T03:03:06.694Z,19.00
2018-08-22T03:06:11.160Z,19.00
2018-08-22T03:09:15.608Z,18.90
2018-08-22T03:12:20.081Z,18.90
2018-08-22T03:15:24.534Z,18.80
2018-08-22T03:18:29.011Z,18.70
2018-08-22T03:21:33.473Z,18.80
2018-08-22T03:24:37.947Z,18.80
2018-08-22T03:27:42.431Z,18.70
2018-08-22T03:30:47.541Z,18.70
2018-08-22T03:33:52.009Z,18.70
2018-08-22T03:36:56.472Z,18.60
2018-08-22T03:40:00.931Z,18.60
2018-08-22T03:43:05.410Z,18.50
2018-08-22T03:46:09.871Z,18.60
2018-08-22T03:49:14.330Z,18.60
2018-08-22T03:52:18.913Z,18.50
2018-08-22T03:55:23.370Z,18.50
2018-08-22T03:58:27.825Z,18.40
2018-08-22T04:01:32.293Z,18.30
2018-08-22T04:04:36.750Z,18.30
2018-08-22T04:07:41.234Z,18.30
2018-08-22T04:10:45.702Z,18.30
2018-08-22T04:13:50.145Z,18.30
2018-08-22T04:16:54.628Z,18.30
2018-08-22T04:19:59.081Z,18.30
2018-08-22T04:23:03.545Z,18.30
2018-08-22T04:26:08.023Z,18.20
2018-08-22T04:29:12.529Z,18.20
2018-08-22T04:32:17.071Z,18.20
2018-08-22T04:35:21.532Z,18.10
2018-08-22T04:38:26.022Z,18.10
2018-08-22T04:41:30.461Z,18.20
2018-08-22T04:44:34.902Z,18.10
2018-08-22T04:47:39.357Z,18.20
2018-08-22T04:50:43.942Z,18.10
2018-08-22T04:53:48.406Z,18.10
2018-08-22T04:56:52.878Z,18.10
2018-08-22T04:59:57.304Z,18.20
2018-08-22T05:03:01.718Z,18.10
2018-08-22T05:06:06.276Z,18.20
2018-08-22T05:09:10.820Z,18.20
2018-08-22T05:12:15.285Z,18.20
2018-08-22T05:15:19.720Z,18.20
2018-08-22T05:18:24.178Z,18.30
2018-08-22T05:21:28.617Z,18.40
2018-08-22T05:24:33.041Z,18.50
2018-08-22T05:27:37.510Z,18.60
2018-08-22T05:30:41.958Z,18.60
2018-08-22T05:33:46.421Z,18.60
2018-08-22T05:36:50.875Z,18.70
2018-08-22T05:39:55.329Z,18.80
2018-08-22T05:42:59.801Z,18.90
2018-08-22T05:46:04.237Z,19.00
2018-08-22T05:49:08.767Z,19.10
2018-08-22T05:52:13.144Z,19.20
2018-08-22T05:55:17.622Z,19.40
2018-08-22T05:58:22.082Z,19.50
2018-08-22T06:01:26.509Z,19.60
2018-08-22T06:04:30.979Z,19.80
2018-08-22T06:07:35.467Z,19.90
2018-08-22T06:10:39.962Z,20.10
2018-08-22T06:13:44.479Z,20.30
2018-08-22T06:16:49.402Z,20.50
2018-08-22T06:19:53.854Z,20.70
2018-08-22T06:22:58.347Z,21.10
2018-08-22T06:26:02.790Z,21.60
2018-08-22T06:29:07.225Z,22.10
2018-08-22T06:32:11.658Z,22.40
2018-08-22T06:35:16.120Z,22.80
2018-08-22T06:38:20.543Z,23.60
2018-08-22T06:41:25.094Z,24.70
2018-08-22T06:44:29.623Z,25.90
2018-08-22T06:47:34.095Z,26.90
2018-08-22T06:50:38.565Z,27.70
2018-08-22T06:53:43.034Z,28.10
2018-08-22T06:56:47.465Z,28.10
2018-08-22T06:59:51.929Z,27.10
2018-08-22T07:02:56.367Z,26.10
2018-08-22T07:06:00.849Z,25.60
2018-08-22T07:09:08.402Z,25.30
2018-08-22T07:12:12.934Z,25.10
2018-08-22T07:15:17.430Z,25.10
2018-08-22T07:18:21.897Z,25.30
2018-08-22T07:21:26.378Z,25.30
2018-08-22T07:24:30.920Z,25.40
2018-08-22T07:27:35.382Z,25.50
2018-08-22T07:30:39.862Z,25.70
2018-08-22T07:33:44.319Z,25.70
2018-08-22T07:36:48.811Z,25.80
2018-08-22T07:39:53.258Z,26.00
2018-08-22T07:42:57.797Z,26.10
2018-08-22T07:46:02.258Z,26.30
2018-08-22T07:49:06.717Z,26.40
2018-08-22T07:52:11.166Z,26.70
2018-08-22T07:55:15.604Z,26.90
2018-08-22T07:58:20.082Z,27.10
2018-08-22T08:01:24.607Z,27.30
2018-08-22T08:04:29.026Z,27.50
2018-08-22T08:07:33.477Z,27.60
2018-08-22T08:10:38.165Z,27.80
2018-08-22T08:13:42.656Z,27.60
2018-08-22T08:16:47.201Z,27.70
2018-08-22T08:19:51.654Z,27.80
2018-08-22T08:22:56.171Z,27.90
2018-08-22T08:26:00.667Z,28.10
2018-08-22T08:29:07.088Z,28.30
2018-08-22T08:32:11.910Z,28.30
2018-08-22T08:35:16.333Z,28.30
2018-08-22T08:38:20.764Z,28.40
2018-08-22T08:41:25.222Z,28.60
2018-08-22T08:44:29.712Z,28.60
2018-08-22T08:47:34.208Z,28.80
2018-08-22T08:50:38.750Z,28.90
2018-08-22T08:53:43.166Z,28.70
2018-08-22T08:56:47.582Z,28.80
2018-08-22T08:59:52.002Z,28.90
2018-08-22T09:02:56.426Z,28.90
2018-08-22T09:06:00.836Z,29.10
2018-08-22T09:09:08.198Z,29.10
2018-08-22T09:12:12.642Z,29.30
2018-08-22T09:15:17.112Z,29.30
2018-08-22T09:18:21.533Z,29.50
2018-08-22T09:21:25.970Z,29.60
2018-08-22T09:24:30.437Z,29.70
2018-08-22T09:27:34.869Z,30.00
2018-08-22T09:30:39.284Z,30.20
2018-08-22T09:33:43.796Z,30.40
2018-08-22T09:36:48.166Z,30.40
2018-08-22T09:39:52.625Z,30.40
2018-08-22T09:42:57.045Z,30.40
2018-08-22T09:46:01.467Z,30.60
2018-08-22T09:49:05.948Z,30.60
2018-08-22T09:52:10.393Z,30.60
2018-08-22T09:55:14.818Z,30.80
2018-08-22T09:58:19.333Z,30.90
2018-08-22T10:01:29.033Z,31.10
2018-08-22T10:04:33.445Z,31.30
2018-08-22T10:07:37.893Z,31.40
2018-08-22T10:10:42.313Z,31.50
2018-08-22T10:13:46.904Z,31.60
2018-08-22T10:16:51.321Z,31.50
2018-08-22T10:19:55.757Z,31.40
2018-08-22T10:23:00.177Z,31.40
2018-08-22T10:26:04.801Z,31.50
2018-08-22T10:29:09.285Z,31.60
2018-08-22T10:32:14.461Z,31.90
2018-08-22T10:35:19.093Z,32.10
2018-08-22T10:38:23.542Z,32.20
2018-08-22T10:41:27.965Z,32.20
2018-08-22T10:44:32.485Z,32.30
2018-08-22T10:47:36.861Z,32.50
2018-08-22T10:50:41.452Z,32.50
2018-08-22T10:53:45.774Z,32.70
2018-08-22T10:56:50.195Z,32.70
2018-08-22T10:59:54.688Z,32.90
2018-08-22T11:02:59.145Z,33.00
2018-08-22T11:06:03.801Z,33.00
2018-08-22T11:09:09.497Z,33.10
2018-08-22T11:12:13.925Z,33.10
2018-08-22T11:15:18.359Z,33.00
2018-08-22T11:18:22.782Z,32.80
2018-08-22T11:21:44.100Z,32.50
2018-08-22T11:25:05.498Z,32.50
2018-08-22T11:28:26.998Z,32.70
2018-08-22T11:31:48.341Z,32.80
2018-08-22T11:34:52.117Z,33.10
2018-08-22T11:37:56.533Z,33.30
2018-08-22T11:41:00.964Z,33.40
2018-08-22T11:44:05.406Z,33.50
2018-08-22T11:47:09.858Z,33.60
2018-08-22T11:50:14.375Z,33.80
2018-08-22T11:53:18.837Z,33.70
2018-08-22T11:56:23.294Z,33.60
2018-08-22T11:59:27.854Z,33.60
2018-08-22T12:02:32.289Z,33.60
2018-08-22T12:05:36.717Z,33.60
2018-08-22T12:08:41.223Z,33.30
2018-08-22T12:11:45.688Z,32.90
2018-08-22T12:14:50.171Z,32.60
2018-08-22T12:17:54.609Z,32.50
2018-08-22T12:20:59.078Z,32.50
2018-08-22T12:24:03.902Z,32.70
2018-08-22T12:27:08.433Z,32.90
2018-08-22T12:30:12.890Z,33.00
2018-08-22T12:33:17.326Z,33.00
2018-08-22T12:36:21.736Z,33.00
2018-08-22T12:39:26.148Z,33.00
2018-08-22T12:42:30.622Z,33.00
2018-08-22T12:45:35.055Z,33.10
2018-08-22T12:48:39.466Z,33.20
2018-08-22T12:51:43.898Z,33.40
2018-08-22T12:54:48.540Z,33.20
2018-08-22T12:57:52.946Z,32.80
2018-08-22T13:00:57.397Z,32.50
2018-08-22T13:04:01.791Z,32.40
2018-08-22T13:07:06.287Z,32.50
2018-08-22T13:10:10.701Z,32.80
2018-08-22T13:13:15.118Z,33.00
2018-08-22T13:16:19.552Z,32.90
2018-08-22T13:19:23.974Z,33.00
2018-08-22T13:22:28.458Z,33.20
2018-08-22T13:25:32.934Z,33.30
2018-08-22T13:28:37.377Z,33.50
2018-08-22T13:31:41.884Z,33.60
2018-08-22T13:34:46.303Z,33.80
2018-08-22T13:37:50.733Z,33.90
2018-08-22T13:40:55.166Z,34.10
2018-08-22T13:43:59.626Z,34.30
2018-08-22T13:47:04.095Z,34.40
2018-08-22T13:50:08.574Z,34.40
2018-08-22T13:53:13.033Z,34.50
2018-08-22T13:56:17.523Z,34.70
2018-08-22T13:59:21.963Z,34.80
2018-08-22T14:02:26.461Z,34.90
2018-08-22T14:05:30.893Z,34.80
2018-08-22T14:08:35.432Z,34.80
2018-08-22T14:11:40.065Z,34.70
2018-08-22T14:14:44.627Z,34.70
2018-08-22T14:17:49.107Z,34.60
2018-08-22T14:20:53.545Z,34.60
2018-08-22T14:23:58.036Z,34.70
2018-08-22T14:27:02.541Z,34.70
2018-08-22T14:30:07.832Z,34.80
2018-08-22T14:33:12.268Z,34.80
2018-08-22T14:36:16.719Z,35.00
2018-08-22T14:39:21.203Z,34.90
2018-08-22T14:42:25.610Z,34.80
2018-08-22T14:45:30.062Z,34.80
2018-08-22T14:48:34.538Z,34.90
2018-08-22T14:51:39.039Z,34.60
2018-08-22T14:54:43.489Z,34.30
2018-08-22T14:57:47.993Z,33.90
2018-08-22T15:00:52.414Z,33.60
2018-08-22T15:03:56.942Z,33.10
2018-08-22T15:07:01.365Z,32.70
2018-08-22T15:10:05.892Z,32.40
2018-08-22T15:13:10.397Z,32.10
2018-08-22T15:16:14.810Z,31.80
2018-08-22T15:19:19.246Z,31.60
2018-08-22T15:22:23.677Z,31.50
2018-08-22T15:25:28.208Z,31.30
2018-08-22T15:28:32.660Z,31.20
2018-08-22T15:31:37.081Z,31.00
2018-08-22T15:34:52.340Z,30.80
2018-08-22T15:37:56.767Z,30.70
2018-08-22T15:41:01.280Z,30.50
2018-08-22T15:44:05.700Z,30.40
2018-08-22T15:47:10.225Z,30.20
2018-08-22T15:50:14.645Z,30.10
2018-08-22T15:53:19.254Z,29.90
2018-08-22T15:56:23.686Z,29.60
2018-08-22T15:59:28.195Z,29.40
2018-08-22T16:02:32.615Z,29.20
2018-08-22T16:05:38.005Z,29.10
2018-08-22T16:08:42.446Z,29.00
2018-08-22T16:11:46.850Z,28.80
2018-08-22T16:14:51.265Z,28.60
2018-08-22T16:17:56.727Z,28.60
2018-08-22T16:21:02.236Z,28.50
2018-08-22T16:24:06.840Z,28.50
2018-08-22T16:27:11.454Z,28.50
2018-08-22T16:30:15.865Z,28.50
2018-08-22T16:33:20.333Z,28.40
2018-08-22T16:36:30.599Z,28.30
2018-08-22T16:39:44.153Z,28.20
2018-08-22T16:42:48.611Z,28.00
2018-08-22T16:45:55.243Z,28.00
2018-08-22T16:48:59.720Z,28.10
2018-08-22T16:52:04.138Z,28.00
2018-08-22T16:55:19.668Z,28.10
2018-08-22T16:58:24.065Z,28.10
2018-08-22T17:01:28.553Z,28.00
2018-08-22T17:04:32.974Z,27.90
2018-08-22T17:07:37.456Z,27.90
2018-08-22T17:10:55.029Z,28.00
2018-08-22T17:14:00.291Z,28.00
2018-08-22T17:17:04.904Z,28.10
2018-08-22T17:20:10.562Z,28.10
2018-08-22T17:23:14.992Z,28.20
2018-08-22T17:26:20.509Z,28.20
2018-08-22T17:29:24.944Z,28.20
2018-08-22T17:32:29.371Z,28.20
2018-08-22T17:35:38.084Z,28.20
2018-08-22T17:38:46.806Z,28.20
2018-08-22T17:41:51.243Z,28.20
2018-08-22T17:44:55.657Z,28.20
2018-08-22T17:48:00.754Z,28.10
2018-08-22T17:51:05.179Z,28.00
2018-08-22T17:54:09.658Z,27.90
2018-08-22T17:57:25.239Z,27.80
2018-08-22T18:00:33.684Z,27.70
2018-08-22T18:03:38.185Z,27.60
2018-08-22T18:06:42.646Z,27.50
2018-08-22T18:09:48.533Z,27.40
2018-08-22T18:12:53.008Z,27.30
2018-08-22T18:15:57.961Z,27.10
2018-08-22T18:19:02.359Z,26.90
2018-08-22T18:22:06.861Z,26.80
2018-08-22T18:25:11.295Z,26.60
2018-08-22T18:28:16.313Z,26.50
2018-08-22T18:31:20.778Z,26.40
2018-08-22T18:34:25.250Z,26.30
2018-08-22T18:37:30.709Z,26.20
2018-08-22T18:40:35.190Z,26.10
2018-08-22T18:43:40.082Z,25.90
2018-08-22T18:46:44.966Z,25.80
2018-08-22T18:49:49.798Z,25.70
2018-08-22T18:53:02.147Z,25.50
2018-08-22T18:56:14.937Z,25.40
2018-08-22T18:59:27.269Z,25.30
2018-08-22T19:02:32.336Z,25.20
2018-08-22T19:05:38.062Z,25.10
2018-08-22T19:08:42.557Z,25.00
2018-08-22T19:11:47.126Z,24.90
2018-08-22T19:14:51.818Z,24.80
2018-08-22T19:17:56.449Z,24.80
2018-08-22T19:21:03.762Z,24.70
2018-08-22T19:24:08.234Z,24.60
2018-08-22T19:27:12.695Z,24.50
2018-08-22T19:30:17.143Z,24.40
2018-08-22T19:33:22.777Z,24.40
2018-08-22T19:36:27.324Z,24.40
2018-08-22T19:39:31.758Z,24.20
2018-08-22T19:42:37.490Z,24.20
2018-08-22T19:45:41.917Z,24.10
2018-08-22T19:48:46.409Z,24.00
2018-08-22T19:51:50.850Z,24.00
2018-08-22T19:54:55.357Z,23.90
2018-08-22T19:57:59.829Z,23.80
2018-08-22T20:01:04.746Z,23.80
2018-08-22T20:04:09.210Z,23.70
2018-08-22T20:07:13.898Z,23.60
2018-08-22T20:10:22.298Z,23.60
2018-08-22T20:13:37.617Z,23.60
2018-08-22T20:16:42.138Z,23.50
2018-08-22T20:19:46.657Z,23.50
2018-08-22T20:22:56.140Z,23.40
2018-08-22T20:26:01.403Z,23.40
2018-08-22T20:29:06.376Z,23.30
2018-08-22T20:32:15.245Z,23.30
2018-08-22T20:35:24.771Z,23.20
2018-08-22T20:38:29.190Z,23.10
2018-08-22T20:41:33.725Z,23.10
2018-08-22T20:44:40.606Z,23.10
2018-08-22T20:47:45.682Z,23.00
2018-08-22T20:50:50.077Z,23.00
2018-08-22T20:53:59.611Z,22.90
2018-08-22T20:57:04.026Z,22.90
2018-08-22T21:00:08.938Z,22.80
2018-08-22T21:03:13.369Z,22.80
2018-08-22T21:06:17.780Z,22.80
2018-08-22T21:09:22.223Z,22.80
2018-08-22T21:12:26.654Z,22.70
2018-08-22T21:15:31.162Z,22.70
2018-08-22T21:18:35.604Z,22.60
2018-08-22T21:21:40.065Z,22.60
2018-08-22T21:24:44.608Z,22.60
2018-08-22T21:27:49.805Z,22.50
2018-08-22T21:30:58.325Z,22.50
2018-08-22T21:34:10.064Z,22.40
2018-08-22T21:37:30.213Z,22.40
2018-08-22T21:40:35.394Z,22.30
2018-08-22T21:43:39.999Z,22.30
2018-08-22T21:46:44.494Z,22.30
2018-08-22T21:49:48.975Z,22.10
2018-08-22T21:53:07.925Z,22.10
2018-08-22T21:56:12.350Z,22.10
2018-08-22T21:59:16.829Z,22.00
2018-08-22T22:02:21.370Z,22.00
2018-08-22T22:05:42.758Z,22.00
2018-08-22T22:08:47.226Z,22.00
2018-08-22T22:11:55.749Z,21.90
2018-08-22T22:15:00.204Z,21.80
2018-08-22T22:18:05.025Z,21.80
2018-08-22T22:21:13.169Z,21.70
2018-08-22T22:24:17.638Z,21.80
2018-08-22T22:27:22.459Z,21.80
2018-08-22T22:30:26.899Z,21.80
2018-08-22T22:33:31.404Z,21.70
2018-08-22T22:36:35.821Z,21.70
2018-08-22T22:39:45.374Z,21.60
2018-08-22T22:42:49.782Z,21.60
2018-08-22T22:45:54.209Z,21.60
2018-08-22T22:48:58.643Z,21.60
2018-08-22T22:52:22.365Z,21.50
2018-08-22T22:55:26.814Z,21.50
2018-08-22T22:58:31.305Z,21.40
2018-08-22T23:01:35.726Z,21.30
2018-08-22T23:04:49.603Z,21.30
2018-08-22T23:07:54.025Z,21.20
2018-08-22T23:10:58.470Z,21.20
2018-08-22T23:14:02.952Z,21.10
2018-08-22T23:17:07.346Z,21.10
2018-08-22T23:20:35.925Z,21.10
2018-08-22T23:23:40.450Z,21.10
2018-08-22T23:26:44.869Z,21.00
2018-08-22T23:29:49.320Z,21.00
2018-08-22T23:32:53.822Z,21.00
2018-08-22T23:35:58.317Z,20.90
2018-08-22T23:39:02.739Z,20.90
2018-08-22T23:42:07.182Z,20.90
2018-08-22T23:45:11.610Z,20.80
2018-08-22T23:48:20.372Z,20.80
2018-08-22T23:51:24.868Z,20.80
2018-08-22T23:54:29.307Z,20.80
2018-08-22T23:57:33.730Z,20.80
